Rankings de siempre
Mejores tiempos personales válidos de atleta a través de todos los eventos y temporadas. Cada atleta aparece una vez por división.
Busca por nombre y abre la página donde está clasificado este récord de división.
32,082 atletas clasificados
Los finishers de HYROX ELITE 15 se rastrean por separado — ver la clasificación Elite.
| Pos. | Pos. AG | Atleta | Nacionalidad | Categoría de edad | TiempoMejor tiempo | Diferencia |
|---|---|---|---|---|---|---|
| 22101 | #2124 | Jasper MoonsNED · M 16-24 · AG #2124 | NED | M 16-24 | 1:32:47 | +39:32 |
| 22102 | #5342 | Jelle GroenNED · M 25-29 · AG #5342 | NED | M 25-29 | 1:32:47 | +39:32 |
| 22103 | #7034 | Stephen DawkinsUSA · M 30-34 · AG #7034 | USA | M 30-34 | 1:32:47 | +39:32 |
| 22104 | #5343 | Sam RobertsCAN · M 25-29 · AG #5343 | CAN | M 25-29 | 1:32:47 | +39:32 |
| 22105 | #5345 | Paul VidalFRA · M 25-29 · AG #5345 | FRA | M 25-29 | 1:32:47 | +39:32 |
| 22106 | #7035 | Jacopo LomazziITA · M 30-34 · AG #7035 | ITA | M 30-34 | 1:32:47 | +39:32 |
| 22107 | #1179 | Thomas AxtGER · M 45-49 · AG #1179 | GER | M 45-49 | 1:32:47 | +39:32 |
| 22108 | #5341 | José De Jesús Ávila HermosilloMEX · M 25-29 · AG #5341 | MEX | M 25-29 | 1:32:47 | +39:32 |
| 22109 | #5005 | Matthew DamsGBR · M 35-39 · AG #5005 | GBR | M 35-39 | 1:32:47 | +39:32 |
| 22110 | #2603 | David BaronGBR · M 40-44 · AG #2603 | GBR | M 40-44 | 1:32:47 | +39:32 |
| 22111 | #2125 | Zachary WinterNZL · M 16-24 · AG #2125 | NZL | M 16-24 | 1:32:48 | +39:33 |
| 22112 | #1180 | Mikael BlomSWE · M 45-49 · AG #1180 | SWE | M 45-49 | 1:32:48 | +39:33 |
| 22113 | #7036 | Nick LungCAN · M 30-34 · AG #7036 | CAN | M 30-34 | 1:32:48 | +39:33 |
| 22114 | #7037 | Christophe MoulinFRA · M 30-34 · AG #7037 | FRA | M 30-34 | 1:32:48 | +39:33 |
| 22115 | #2126 | Jono DunlopAUS · M 16-24 · AG #2126 | AUS | M 16-24 | 1:32:48 | +39:33 |
| 22116 | #5346 | Balthasar Köhle-LucasGER · M 25-29 · AG #5346 | GER | M 25-29 | 1:32:48 | +39:33 |
| 22117 | #5006 | Krys KwasniewskiGER · M 35-39 · AG #5006 | GER | M 35-39 | 1:32:48 | +39:33 |
| 22118 | #1181 | Emmanuel DeffrasnesFRA · M 45-49 · AG #1181 | FRA | M 45-49 | 1:32:48 | +39:33 |
| 22119 | #5007 | Iurii LukashevskiiHYR · M 35-39 · AG #5007 | HYR | M 35-39 | 1:32:49 | +39:34 |
| 22120 | #5347 | Kyle GoodwinAUS · M 25-29 · AG #5347 | AUS | M 25-29 | 1:32:49 | +39:34 |
| 22121 | #5008 | Duc PhanCAN · M 35-39 · AG #5008 | CAN | M 35-39 | 1:32:49 | +39:34 |
| 22122 | #5348 | Thomas Van De GeynNED · M 25-29 · AG #5348 | NED | M 25-29 | 1:32:49 | +39:34 |
| 22123 | #5009 | Zaid Al-ChalabiGBR · M 35-39 · AG #5009 | GBR | M 35-39 | 1:32:49 | +39:34 |
| 22124 | #5010 | Chase BartonAUS · M 35-39 · AG #5010 | AUS | M 35-39 | 1:32:49 | +39:34 |
| 22125 | #5349 | Tobias WitzelGER · M 25-29 · AG #5349 | GER | M 25-29 | 1:32:49 | +39:34 |
Página 885 de 1,284